Time;durP1;ratioP1;P1;durP2;ratioP2;P2;SDS_P1;SDS_P2;PMS_P1;PMS_P2;Temp;Humidity;BMP_temperature;BMP_pressure;BME280_temperature;BME280_humidity;BME280_pressure;Samples;Min_cycle;Max_cycle;Signal;HPM_P1;HPM_P2
2022/05/09 00:02:08;;;;;;;8.43;2.75;;;;;;;;;;6018505;23;20032;-82
2022/05/09 00:04:35;;;;;;;6.50;2.00;;;;;;;;;;6021716;23;20007;-82
2022/05/09 00:07:01;;;;;;;6.28;2.30;;;;;;;;;;6044669;23;20007;-83
2022/05/09 00:09:27;;;;;;;5.38;2.10;;;;;;;;;;6020747;23;20446;-82
2022/05/09 00:11:53;;;;;;;6.63;2.50;;;;;;;;;;6020370;23;20007;-82
2022/05/09 00:14:19;;;;;;;6.07;2.17;;;;;;;;;;6021506;23;20035;-83
2022/05/09 00:16:45;;;;;;;5.88;2.22;;;;;;;;;;6044602;23;20007;-81
2022/05/09 00:19:13;;;;;;;6.32;1.95;;;;;;;;;;6046514;23;20126;-81
2022/05/09 00:21:40;;;;;;;6.32;2.03;;;;;;;;;;6045096;23;20082;-82
2022/05/09 00:24:09;;;;;;;4.45;1.98;;;;;;;;;;6019900;23;20012;-81
2022/05/09 00:26:35;;;;;;;6.70;2.20;;;;;;;;;;6019949;23;20007;-82
2022/05/09 00:29:03;;;;;;;6.18;2.13;;;;;;;;;;6044294;23;20023;-81
2022/05/09 00:31:29;;;;;;;8.23;2.25;;;;;;;;;;6019391;23;20014;-82
2022/05/09 00:33:55;;;;;;;6.55;2.10;;;;;;;;;;6019597;23;20030;-83
2022/05/09 00:36:21;;;;;;;5.65;1.77;;;;;;;;;;6046482;23;20014;-81
2022/05/09 00:38:48;;;;;;;6.60;2.13;;;;;;;;;;6020352;23;20094;-80
2022/05/09 00:44:00;;;;;;;4.72;2.20;;;;;;;;;;6045262;23;20384;-81
2022/05/09 00:46:28;;;;;;;5.18;2.03;;;;;;;;;;6019419;23;20030;-81
2022/05/09 00:48:56;;;;;;;5.65;2.38;;;;;;;;;;6020156;23;20005;-82
2022/05/09 00:51:24;;;;;;;5.32;2.03;;;;;;;;;;6029767;23;20030;-82
2022/05/09 00:53:51;;;;;;;5.87;1.90;;;;;;;;;;6046024;23;20439;-82
2022/05/09 00:56:20;;;;;;;5.53;2.30;;;;;;;;;;6020401;23;20015;-82
2022/05/09 00:58:46;;;;;;;;;;;;;;;;;;6019828;23;20017;-83
2022/05/09 01:01:13;;;;;;;5.88;1.92;;;;;;;;;;6018978;23;19929;-82
2022/05/09 01:03:41;;;;;;;5.63;2.10;;;;;;;;;;6019294;23;20007;-82
2022/05/09 01:06:08;;;;;;;5.50;1.90;;;;;;;;;;6018988;23;20034;-82
2022/05/09 01:08:34;;;;;;;7.03;2.00;;;;;;;;;;6019265;23;20014;-82
2022/05/09 01:11:03;;;;;;;4.50;1.73;;;;;;;;;;6019344;23;20086;-83
2022/05/09 01:13:31;;;;;;;4.57;1.70;;;;;;;;;;6019723;23;20007;-83
2022/05/09 01:15:58;;;;;;;5.65;2.05;;;;;;;;;;6019354;23;20050;-83
2022/05/09 01:18:25;;;;;;;5.07;1.90;;;;;;;;;;6019810;23;20011;-83
2022/05/09 01:20:51;;;;;;;4.63;1.73;;;;;;;;;;6044131;23;20435;-81
2022/05/09 01:23:17;;;;;;;6.20;2.20;;;;;;;;;;6019373;23;20085;-82
2022/05/09 01:25:43;;;;;;;5.60;2.15;;;;;;;;;;6018539;23;20003;-85
2022/05/09 01:28:11;;;;;;;4.85;1.70;;;;;;;;;;6044464;23;20023;-80
2022/05/09 01:30:40;;;;;;;4.88;2.05;;;;;;;;;;6019483;23;20007;-82
2022/05/09 01:33:09;;;;;;;8.05;1.88;;;;;;;;;;6044958;23;20087;-82
2022/05/09 01:35:38;;;;;;;4.70;1.85;;;;;;;;;;6019407;23;20011;-82
2022/05/09 01:38:12;;;;;;;8.95;2.35;;;;;;;;;;6044581;23;20007;-82
2022/05/09 01:40:38;;;;;;;5.03;1.52;;;;;;;;;;6019065;23;20038;-82
2022/05/09 01:43:04;;;;;;;4.45;1.90;;;;;;;;;;6019097;23;20439;-82
2022/05/09 01:45:30;;;;;;;4.93;1.63;;;;;;;;;;6042865;23;20004;-82
2022/05/09 01:50:40;;;;;;;4.75;1.75;;;;;;;;;;6044375;23;20487;-82
2022/05/09 01:53:06;;;;;;;5.97;1.80;;;;;;;;;;6018684;23;20094;-83
2022/05/09 01:55:32;;;;;;;4.28;1.50;;;;;;;;;;6019397;23;20012;-83
2022/05/09 01:57:59;;;;;;;5.90;1.60;;;;;;;;;;6018805;23;20036;-83
2022/05/09 02:00:24;;;;;;;4.68;1.60;;;;;;;;;;6043420;23;20018;-81
2022/05/09 02:02:51;;;;;;;4.60;1.77;;;;;;;;;;6044091;23;20007;-81
2022/05/09 02:05:17;;;;;;;5.25;1.90;;;;;;;;;;6043136;23;20010;-81
2022/05/09 02:07:43;;;;;;;4.00;1.52;;;;;;;;;;6044821;23;20007;-80
2022/05/09 02:10:09;;;;;;;5.40;1.55;;;;;;;;;;6018318;23;20350;-81
2022/05/09 02:12:35;;;;;;;7.70;1.67;;;;;;;;;;6019712;23;20098;-81
2022/05/09 02:15:01;;;;;;;4.82;1.75;;;;;;;;;;6020959;23;20031;-81
2022/05/09 02:17:29;;;;;;;5.55;1.80;;;;;;;;;;6019904;23;20007;-80
2022/05/09 02:19:55;;;;;;;4.68;1.50;;;;;;;;;;6020873;23;20380;-81
2022/05/09 02:22:21;;;;;;;5.65;1.70;;;;;;;;;;6020260;23;20007;-81
2022/05/09 02:24:47;;;;;;;19.33;2.05;;;;;;;;;;6045543;23;20055;-81
2022/05/09 02:27:13;;;;;;;4.05;1.50;;;;;;;;;;6020356;23;20013;-81
2022/05/09 02:29:39;;;;;;;6.13;1.80;;;;;;;;;;6020582;23;20011;-81
2022/05/09 02:32:06;;;;;;;5.82;1.92;;;;;;;;;;6046212;23;20078;-81
2022/05/09 02:34:32;;;;;;;5.03;1.98;;;;;;;;;;6021399;23;20403;-82
2022/05/09 02:36:58;;;;;;;4.60;1.83;;;;;;;;;;6021250;23;20046;-81
2022/05/09 02:39:24;;;;;;;3.95;1.90;;;;;;;;;;6045832;23;20046;-81
2022/05/09 02:41:50;;;;;;;5.10;1.48;;;;;;;;;;6020359;23;20439;-81
2022/05/09 02:44:16;;;;;;;6.63;1.83;;;;;;;;;;6021006;23;20023;-80
2022/05/09 02:46:43;;;;;;;4.07;1.67;;;;;;;;;;6019675;23;20027;-81
2022/05/09 02:49:10;;;;;;;5.97;2.10;;;;;;;;;;6021144;23;20007;-81
2022/05/09 02:51:36;;;;;;;3.67;1.30;;;;;;;;;;6023043;23;20031;-81
2022/05/09 02:54:02;;;;;;;4.18;1.50;;;;;;;;;;6022812;23;20010;-79
2022/05/09 02:56:28;;;;;;;4.45;1.83;;;;;;;;;;6024534;23;20000;-80
2022/05/09 02:58:54;;;;;;;5.20;1.83;;;;;;;;;;6023920;23;20065;-81
2022/05/09 03:01:20;;;;;;;4.60;1.55;;;;;;;;;;6045270;23;20004;-83
2022/05/09 03:06:31;;;;;;;3.78;1.40;;;;;;;;;;6044852;23;20018;-83
2022/05/09 13:41:11;;;;;;;8.52;2.67;;;;;;;;;;6015141;23;20075;-85
2022/05/09 13:43:40;;;;;;;8.40;2.17;;;;;;;;;;6013114;23;20060;-84
2022/05/09 13:46:12;;;;;;;8.18;2.63;;;;;;;;;;5990404;23;20087;-85
2022/05/09 13:48:39;;;;;;;9.00;2.63;;;;;;;;;;5995293;23;20165;-84
2022/05/09 13:51:05;;;;;;;11.20;2.88;;;;;;;;;;5983647;23;20008;-85
2022/05/09 13:53:32;;;;;;;11.80;3.38;;;;;;;;;;5983415;24;20036;-82
2022/05/09 13:55:59;;;;;;;15.63;3.85;;;;;;;;;;5982507;23;20012;-81
2022/05/09 13:58:28;;;;;;;12.02;3.67;;;;;;;;;;5983008;23;20051;-87
2022/05/09 14:00:54;;;;;;;15.77;3.58;;;;;;;;;;5980332;24;20043;-85
2022/05/09 14:03:45;;;;;;;14.20;3.75;;;;;;;;;;5978191;24;20012;-84
2022/05/09 14:06:22;;;;;;;14.25;4.07;;;;;;;;;;5979640;23;20452;-86
2022/05/09 14:08:50;;;;;;;20.17;4.03;;;;;;;;;;5981019;23;20004;-87
2022/05/09 14:11:28;;;;;;;13.30;2.85;;;;;;;;;;5982199;24;20439;-86
2022/05/09 14:13:54;;;;;;;16.40;3.33;;;;;;;;;;5986670;24;20040;-86
2022/05/09 14:16:22;;;;;;;10.63;2.97;;;;;;;;;;5987394;23;20036;-86
2022/05/09 14:18:50;;;;;;;13.20;3.03;;;;;;;;;;5986376;23;20432;-86
2022/05/09 14:21:18;;;;;;;8.55;2.70;;;;;;;;;;5993237;23;20013;-86
2022/05/09 14:23:47;;;;;;;10.35;2.53;;;;;;;;;;5996023;24;20012;-85
2022/05/09 14:31:44;;;;;;;13.05;3.10;;;;;;;;;;5986422;24;20072;-83
2022/05/09 14:34:31;;;;;;;9.35;2.85;;;;;;;;;;5984466;23;20009;-83
2022/05/09 14:42:19;;;;;;;11.63;2.60;;;;;;;;;;5040363;28;20897;-50
2022/05/09 14:44:53;;;;;;;11.32;2.80;;;;;;;;;;5046813;28;20100;-50
2022/05/09 14:47:28;;;;;;;13.13;2.90;;;;;;;;;;5038100;28;20385;-48
2022/05/09 14:50:13;;;;;;;18.77;2.25;;;;;;;;;;5058020;28;20021;-55
2022/05/09 14:52:57;;;;;;;11.27;2.38;;;;;;;;;;5039143;28;20016;-49
2022/05/09 14:58:39;;;;;;;8.30;2.28;;;;;;;;;;5058144;28;20492;-46
2022/05/09 15:01:11;;;;;;;7.00;2.40;;;;;;;;;;5043745;28;20029;-50
2022/05/09 15:03:40;;;;;;;9.50;2.20;;;;;;;;;;5047252;28;20041;-48
2022/05/09 15:06:07;;;;;;;8.45;1.77;;;;;;;;;;5042531;28;20018;-46
2022/05/09 15:08:34;;;;;;;12.77;2.33;;;;;;;;;;5050189;28;20017;-48
2022/05/09 15:11:02;;;;;;;9.30;2.22;;;;;;;;;;5045280;28;20039;-49
2022/05/09 15:13:29;;;;;;;8.83;2.30;;;;;;;;;;5048629;28;20021;-47
2022/05/09 15:15:57;;;;;;;10.38;2.30;;;;;;;;;;5047296;28;20024;-52
2022/05/09 15:18:23;;;;;;;9.85;2.42;;;;;;;;;;5039828;28;20466;-49
2022/05/09 15:20:51;;;;;;;9.60;2.50;;;;;;;;;;5046628;28;20048;-49
2022/05/09 15:23:19;;;;;;;10.02;2.30;;;;;;;;;;5045680;28;20037;-51
2022/05/09 15:25:52;;;;;;;11.68;2.20;;;;;;;;;;5041090;28;20366;-49
2022/05/09 15:28:19;;;;;;;6.22;2.33;;;;;;;;;;5057582;28;20542;-47
2022/05/09 15:30:46;;;;;;;8.18;2.40;;;;;;;;;;5044360;28;20066;-54
2022/05/09 15:33:12;;;;;;;13.57;2.85;;;;;;;;;;5039417;28;20029;-50
2022/05/09 15:35:38;;;;;;;10.20;2.20;;;;;;;;;;5043097;28;20033;-57
2022/05/09 15:38:08;;;;;;;11.63;3.13;;;;;;;;;;5039510;28;20064;-47
2022/05/09 15:40:46;;;;;;;13.32;2.63;;;;;;;;;;5040460;28;20060;-48
2022/05/09 15:43:18;;;;;;;14.88;2.83;;;;;;;;;;5046761;28;20082;-50
2022/05/09 15:45:45;;;;;;;14.18;2.28;;;;;;;;;;5048156;28;20484;-50
2022/05/09 15:48:12;;;;;;;19.60;2.65;;;;;;;;;;5048848;28;20392;-46
2022/05/09 15:50:38;;;;;;;14.38;3.47;;;;;;;;;;5045430;28;20025;-44
2022/05/09 15:53:06;;;;;;;14.80;3.30;;;;;;;;;;5032560;28;20370;-46
2022/05/09 15:55:32;;;;;;;15.82;2.30;;;;;;;;;;5047974;28;20029;-43
2022/05/09 15:58:01;;;;;;;12.60;2.58;;;;;;;;;;5046005;28;20018;-46
2022/05/09 16:00:28;;;;;;;;;;;;;;;;;;5024918;28;20049;-49
2022/05/09 16:02:55;;;;;;;13.40;2.85;;;;;;;;;;5029975;28;19905;-49
2022/05/09 16:05:24;;;;;;;17.65;2.47;;;;;;;;;;5027870;28;20469;-49
2022/05/09 16:13:20;;;;;;;9.90;2.85;;;;;;;;;;5030861;28;20028;-50
2022/05/09 16:15:46;;;;;;;13.10;2.55;;;;;;;;;;5028053;28;20017;-46
2022/05/09 16:18:15;;;;;;;12.50;2.40;;;;;;;;;;5028009;28;20061;-51
2022/05/09 16:20:41;;;;;;;9.57;2.35;;;;;;;;;;5028801;28;20493;-50
2022/05/09 16:23:07;;;;;;;8.30;2.63;;;;;;;;;;5033471;28;20055;-45
2022/05/09 16:25:36;;;;;;;9.57;2.38;;;;;;;;;;5034104;28;20117;-49
2022/05/09 16:28:02;;;;;;;9.17;2.20;;;;;;;;;;5032005;28;20119;-50
2022/05/09 16:30:31;;;;;;;8.35;2.00;;;;;;;;;;5031275;28;20773;-49
2022/05/09 16:32:57;;;;;;;7.90;3.05;;;;;;;;;;5032555;28;20397;-45
2022/05/09 16:37:58;;;;;;;7.75;2.58;;;;;;;;;;5036786;22;20050;-46
2022/05/09 16:40:27;;;;;;;8.70;2.47;;;;;;;;;;5021581;28;20334;-45
2022/05/09 16:42:53;;;;;;;;;;;;;;;;;;5032154;28;20041;-52
2022/05/09 16:45:21;;;;;;;15.07;3.10;;;;;;;;;;5033559;28;20311;-49
2022/05/09 16:47:47;;;;;;;12.35;3.25;;;;;;;;;;5042535;28;20071;-48
2022/05/09 16:50:18;;;;;;;12.52;2.78;;;;;;;;;;5045492;28;20032;-47
2022/05/09 16:52:44;;;;;;;12.63;2.85;;;;;;;;;;5035949;28;20036;-43
2022/05/09 16:55:10;;;;;;;11.35;2.85;;;;;;;;;;5051743;28;20029;-41
2022/05/09 16:57:37;;;;;;;11.65;2.80;;;;;;;;;;5014711;28;20030;-43
2022/05/09 17:00:05;;;;;;;6.30;1.98;;;;;;;;;;5012133;28;20463;-47
2022/05/09 17:02:30;;;;;;;8.65;2.30;;;;;;;;;;5011399;28;20444;-47
2022/05/09 17:04:56;;;;;;;13.40;2.25;;;;;;;;;;5050995;28;20060;-43
2022/05/09 17:07:23;;;;;;;10.70;3.30;;;;;;;;;;5053765;28;20473;-48
2022/05/09 17:09:49;;;;;;;6.25;2.13;;;;;;;;;;5053553;28;20504;-46
2022/05/09 17:12:23;;;;;;;12.70;2.42;;;;;;;;;;5041592;28;20213;-48
2022/05/09 17:14:50;;;;;;;9.52;2.03;;;;;;;;;;5034586;28;20064;-49
2022/05/09 17:17:19;;;;;;;8.05;2.13;;;;;;;;;;5035715;28;20024;-49
2022/05/09 17:19:45;;;;;;;10.73;2.30;;;;;;;;;;5053413;28;20025;-48
2022/05/09 17:22:11;;;;;;;7.30;2.60;;;;;;;;;;5053123;28;20499;-51
2022/05/09 17:24:37;;;;;;;5.53;2.03;;;;;;;;;;5053526;28;20393;-48
2022/05/09 17:27:05;;;;;;;5.95;1.90;;;;;;;;;;5043135;28;20025;-46
2022/05/09 17:29:32;;;;;;;10.00;2.40;;;;;;;;;;5020171;28;20041;-51
2022/05/09 17:32:00;;;;;;;7.70;2.10;;;;;;;;;;5015507;28;20025;-47
2022/05/09 17:34:26;;;;;;;5.97;1.60;;;;;;;;;;5015631;28;20033;-47
2022/05/09 17:39:39;;;;;;;9.18;2.20;;;;;;;;;;5032748;28;20036;-47
2022/05/09 17:42:06;;;;;;;8.55;2.22;;;;;;;;;;5023456;28;20060;-49
2022/05/09 17:44:32;;;;;;;9.05;2.30;;;;;;;;;;5015485;28;20373;-51
2022/05/09 17:46:58;;;;;;;6.10;1.85;;;;;;;;;;5048608;28;20021;-45
2022/05/09 17:49:26;;;;;;;5.05;1.88;;;;;;;;;;5026535;28;20030;-48
2022/05/09 17:51:52;;;;;;;6.40;1.80;;;;;;;;;;5048136;28;20124;-50
2022/05/09 17:54:19;;;;;;;7.88;2.35;;;;;;;;;;5036051;28;20382;-47
2022/05/09 17:56:53;;;;;;;6.57;2.05;;;;;;;;;;5021028;28;20415;-49
2022/05/09 17:59:19;;;;;;;9.02;2.50;;;;;;;;;;5038852;28;20585;-49
2022/05/09 18:01:53;;;;;;;6.20;2.67;;;;;;;;;;5014830;28;20535;-51
2022/05/09 18:04:19;;;;;;;9.82;2.97;;;;;;;;;;5014374;28;20354;-49
2022/05/09 18:06:46;;;;;;;7.28;2.33;;;;;;;;;;5032325;28;20021;-47
2022/05/09 18:09:12;;;;;;;9.13;2.42;;;;;;;;;;5028950;28;20096;-54
2022/05/09 18:11:58;;;;;;;7.75;1.90;;;;;;;;;;5043981;28;20113;-50
2022/05/09 18:14:28;;;;;;;5.38;2.28;;;;;;;;;;5049848;28;20460;-46
2022/05/09 18:17:04;;;;;;;5.50;1.85;;;;;;;;;;5034623;28;20068;-47
2022/05/09 18:19:31;;;;;;;5.53;1.88;;;;;;;;;;5034431;28;20017;-50
2022/05/09 18:21:58;;;;;;;5.40;2.15;;;;;;;;;;5031315;28;20117;-46
2022/05/09 18:24:25;;;;;;;7.50;2.22;;;;;;;;;;5022850;28;20071;-44
2022/05/09 18:26:53;;;;;;;6.45;2.05;;;;;;;;;;5007556;28;20029;-50
2022/05/09 18:29:19;;;;;;;7.80;2.33;;;;;;;;;;5017179;28;20108;-47
2022/05/09 18:31:48;;;;;;;4.78;1.75;;;;;;;;;;5031145;28;20132;-49
2022/05/09 18:34:15;;;;;;;8.98;2.33;;;;;;;;;;5034928;28;20487;-51
2022/05/09 18:36:42;;;;;;;31.58;24.52;;;;;;;;;;5015793;28;20037;-47
2022/05/09 18:39:15;;;;;;;38.92;26.70;;;;;;;;;;5025353;28;20025;-47
2022/05/09 18:41:46;;;;;;;30.02;17.20;;;;;;;;;;5020058;28;20048;-49
2022/05/09 18:44:12;;;;;;;21.38;14.98;;;;;;;;;;5005097;28;20450;-50
2022/05/09 18:46:40;;;;;;;27.38;14.30;;;;;;;;;;5034859;28;20116;-47
2022/05/09 18:54:38;;;;;;;16.83;11.75;;;;;;;;;;5030540;28;20068;-46
2022/05/09 18:57:04;;;;;;;22.42;11.95;;;;;;;;;;5013266;28;20054;-48
2022/05/09 18:59:30;;;;;;;22.90;11.50;;;;;;;;;;5012776;28;20465;-50
2022/05/09 19:01:56;;;;;;;21.25;11.40;;;;;;;;;;5030857;28;20117;-47
2022/05/09 19:04:22;;;;;;;18.80;12.20;;;;;;;;;;5012684;28;20464;-50
2022/05/09 19:06:50;;;;;;;23.35;12.30;;;;;;;;;;5025668;28;20109;-48
2022/05/09 19:09:17;;;;;;;23.95;11.57;;;;;;;;;;5007086;28;20037;-50
2022/05/09 19:11:43;;;;;;;20.98;10.02;;;;;;;;;;5028009;28;20091;-48
2022/05/09 19:14:13;;;;;;;21.70;9.88;;;;;;;;;;5013956;28;20458;-53
2022/05/09 19:16:40;;;;;;;18.52;9.63;;;;;;;;;;5028480;28;20025;-56
2022/05/09 19:19:06;;;;;;;26.58;9.85;;;;;;;;;;5026472;28;20439;-48
2022/05/09 19:21:32;;;;;;;18.08;9.18;;;;;;;;;;5034967;28;20068;-50
2022/05/09 19:23:58;;;;;;;16.60;9.13;;;;;;;;;;5013222;28;20462;-53
2022/05/09 19:26:26;;;;;;;19.55;8.73;;;;;;;;;;5012931;28;20025;-49
2022/05/09 19:28:55;;;;;;;14.48;7.80;;;;;;;;;;5042703;28;20017;-48
2022/05/09 19:31:23;;;;;;;14.40;8.05;;;;;;;;;;5035897;28;20078;-45
2022/05/09 19:33:49;;;;;;;17.80;7.95;;;;;;;;;;5053198;28;20032;-46
2022/05/09 19:36:18;;;;;;;14.63;7.72;;;;;;;;;;5035279;28;20022;-47
2022/05/09 19:38:44;;;;;;;18.02;7.63;;;;;;;;;;5035208;28;20042;-51
2022/05/09 19:41:12;;;;;;;15.00;7.38;;;;;;;;;;5016595;28;20482;-48
2022/05/09 19:43:39;;;;;;;11.13;6.63;;;;;;;;;;5015737;28;20323;-44
2022/05/09 19:46:06;;;;;;;12.23;6.22;;;;;;;;;;5034636;28;20037;-49
2022/05/09 19:48:33;;;;;;;9.82;5.80;;;;;;;;;;5028809;28;20053;-43
2022/05/09 19:51:03;;;;;;;12.07;5.95;;;;;;;;;;5048105;28;20037;-43
2022/05/09 19:56:15;;;;;;;10.50;5.53;;;;;;;;;;5034317;28;20472;-45
2022/05/09 19:58:42;;;;;;;11.30;5.85;;;;;;;;;;5009770;28;20371;-41
2022/05/09 20:01:08;;;;;;;14.35;5.05;;;;;;;;;;5010044;28;20033;-42
2022/05/09 20:03:35;;;;;;;14.18;5.72;;;;;;;;;;5034092;28;20036;-45
2022/05/09 20:06:02;;;;;;;10.50;5.03;;;;;;;;;;5015121;28;20068;-42
2022/05/09 20:08:33;;;;;;;12.55;5.53;;;;;;;;;;5027866;28;20056;-47
2022/05/09 20:10:59;;;;;;;11.70;4.85;;;;;;;;;;5014072;28;20393;-53
2022/05/09 20:13:28;;;;;;;10.38;4.20;;;;;;;;;;5003172;28;20026;-59
2022/05/09 20:15:54;;;;;;;10.80;4.18;;;;;;;;;;5033995;28;20021;-54
2022/05/09 20:18:21;;;;;;;12.73;4.18;;;;;;;;;;5017190;28;20352;-57
2022/05/09 20:20:47;;;;;;;11.07;4.28;;;;;;;;;;5016586;28;20059;-59
2022/05/09 20:23:14;;;;;;;28.25;19.30;;;;;;;;;;5028341;28;20060;-56
2022/05/09 20:31:11;;;;;;;40.35;29.33;;;;;;;;;;5029991;28;20432;-66
2022/05/09 20:33:38;;;;;;;45.05;29.42;;;;;;;;;;5021712;28;20053;-62
2022/05/09 20:36:07;;;;;;;40.35;28.17;;;;;;;;;;5033024;28;20033;-62
2022/05/09 20:38:34;;;;;;;44.25;28.80;;;;;;;;;;5017520;28;20072;-63
2022/05/09 20:41:01;;;;;;;38.85;26.98;;;;;;;;;;5030471;28;20072;-66
2022/05/09 20:43:29;;;;;;;37.08;26.52;;;;;;;;;;5025334;28;20029;-67
2022/05/09 20:45:55;;;;;;;39.95;25.55;;;;;;;;;;5018345;28;20023;-66
2022/05/09 20:48:21;;;;;;;36.05;24.27;;;;;;;;;;5054129;28;20025;-64
2022/05/09 20:50:47;;;;;;;36.78;24.35;;;;;;;;;;5043380;28;20026;-65
2022/05/09 20:53:25;;;;;;;36.35;23.80;;;;;;;;;;5014719;28;20375;-66
2022/05/09 20:55:52;;;;;;;35.47;23.38;;;;;;;;;;5031148;28;20021;-64
2022/05/09 20:58:18;;;;;;;33.22;22.20;;;;;;;;;;5033714;28;20024;-63
2022/05/09 21:00:48;;;;;;;35.60;23.27;;;;;;;;;;5012094;28;20026;-62
2022/05/09 21:03:14;;;;;;;32.45;21.02;;;;;;;;;;5029628;28;20144;-62
2022/05/09 21:05:40;;;;;;;31.42;21.95;;;;;;;;;;5030060;28;20104;-63
2022/05/09 21:08:07;;;;;;;33.58;21.65;;;;;;;;;;5049751;28;20029;-63
2022/05/09 21:10:34;;;;;;;27.95;19.33;;;;;;;;;;5020940;28;20116;-63
2022/05/09 21:13:00;;;;;;;29.25;19.35;;;;;;;;;;5015391;28;20448;-63
2022/05/09 21:15:26;;;;;;;32.45;19.10;;;;;;;;;;5015481;28;20116;-65
2022/05/09 21:17:52;;;;;;;27.35;19.25;;;;;;;;;;5030260;28;20061;-61
2022/05/09 21:20:18;;;;;;;27.08;14.82;;;;;;;;;;5034327;28;20033;-58
2022/05/09 21:22:47;;;;;;;24.40;14.98;;;;;;;;;;5014545;28;20026;-60
2022/05/09 21:25:13;;;;;;;;;;;;;;;;;;5023113;28;20026;-66
2022/05/09 21:27:39;;;;;;;26.40;14.32;;;;;;;;;;5030489;28;19909;-70
2022/05/09 21:30:05;;;;;;;24.38;13.93;;;;;;;;;;5014419;28;20048;-70
2022/05/09 21:32:31;;;;;;;21.45;13.90;;;;;;;;;;5032369;28;20025;-68
2022/05/09 21:34:57;;;;;;;24.40;14.82;;;;;;;;;;5014010;28;20013;-72
2022/05/09 21:37:25;;;;;;;19.92;12.18;;;;;;;;;;5016231;28;20500;-64
2022/05/09 21:42:42;;;;;;;21.13;13.43;;;;;;;;;;5031838;28;20046;-70
2022/05/09 21:45:08;;;;;;;20.85;13.15;;;;;;;;;;5035340;28;20111;-70
2022/05/09 21:47:34;;;;;;;18.58;11.15;;;;;;;;;;5033114;28;20029;-68
2022/05/09 21:50:03;;;;;;;33.35;11.57;;;;;;;;;;5031024;28;20052;-67
2022/05/09 21:52:33;;;;;;;18.40;11.23;;;;;;;;;;5032473;28;20545;-68
2022/05/09 21:55:01;;;;;;;25.65;11.40;;;;;;;;;;5017573;28;20267;-70
2022/05/09 21:57:28;;;;;;;20.07;11.47;;;;;;;;;;5032671;28;20021;-56
2022/05/09 21:59:54;;;;;;;18.77;10.95;;;;;;;;;;5013123;28;20377;-63
2022/05/09 22:02:20;;;;;;;21.55;10.65;;;;;;;;;;5043493;28;20096;-65
2022/05/09 22:04:46;;;;;;;15.07;9.32;;;;;;;;;;5017857;28;20477;-65
2022/05/09 22:07:12;;;;;;;20.15;10.82;;;;;;;;;;5014318;28;20017;-65
2022/05/09 22:09:40;;;;;;;15.77;9.52;;;;;;;;;;5030963;28;20029;-68
2022/05/09 22:12:06;;;;;;;19.90;9.48;;;;;;;;;;5028575;28;20167;-65
2022/05/09 22:14:33;;;;;;;16.70;9.75;;;;;;;;;;4996210;28;20026;-67
2022/05/09 22:16:59;;;;;;;16.17;9.02;;;;;;;;;;5032231;28;20025;-63
2022/05/09 22:19:26;;;;;;;13.95;8.77;;;;;;;;;;5035578;28;20067;-54
2022/05/09 22:21:54;;;;;;;14.63;8.13;;;;;;;;;;5015328;28;20378;-49
2022/05/09 22:24:20;;;;;;;14.60;8.30;;;;;;;;;;5029908;28;20034;-53
2022/05/09 22:26:48;;;;;;;17.08;7.97;;;;;;;;;;5012988;28;20384;-52
2022/05/09 22:29:29;;;;;;;17.45;8.13;;;;;;;;;;5029421;28;20068;-53
2022/05/09 22:32:06;;;;;;;15.32;8.00;;;;;;;;;;5015112;28;20076;-47
2022/05/09 22:34:36;;;;;;;17.27;8.50;;;;;;;;;;5010354;28;20075;-50
2022/05/09 22:37:05;;;;;;;14.48;7.88;;;;;;;;;;5016963;28;20018;-50
2022/05/09 22:39:33;;;;;;;15.18;7.80;;;;;;;;;;5008075;28;20358;-48
2022/05/09 22:42:00;;;;;;;13.73;6.28;;;;;;;;;;5014779;28;20029;-48
2022/05/09 22:44:26;;;;;;;13.85;6.40;;;;;;;;;;5015282;28;20038;-49
2022/05/09 22:46:52;;;;;;;13.63;6.13;;;;;;;;;;5002018;28;20302;-47
2022/05/09 22:49:24;;;;;;;11.98;6.10;;;;;;;;;;5028076;28;20028;-53
2022/05/09 22:51:50;;;;;;;9.48;5.68;;;;;;;;;;5021827;28;20048;-47
2022/05/09 22:54:16;;;;;;;9.88;5.63;;;;;;;;;;5022035;28;20033;-49
2022/05/09 22:57:08;;;;;;;12.45;6.05;;;;;;;;;;5038334;22;20044;-50
2022/05/09 22:59:34;;;;;;;11.48;6.00;;;;;;;;;;5042840;28;20041;-49
2022/05/09 23:02:00;;;;;;;11.52;6.05;;;;;;;;;;5047101;28;20135;-45
2022/05/09 23:04:27;;;;;;;13.57;5.75;;;;;;;;;;5052569;28;20039;-43
2022/05/09 23:06:53;;;;;;;11.32;4.97;;;;;;;;;;5052267;28;20115;-50
2022/05/09 23:09:21;;;;;;;12.45;5.65;;;;;;;;;;5038421;28;20381;-43
2022/05/09 23:11:49;;;;;;;11.15;5.20;;;;;;;;;;5051382;28;20428;-50
2022/05/09 23:14:17;;;;;;;10.35;5.05;;;;;;;;;;5047022;28;20053;-47
2022/05/09 23:16:43;;;;;;;8.57;5.10;;;;;;;;;;5051499;28;20504;-47
2022/05/09 23:19:09;;;;;;;9.15;4.95;;;;;;;;;;5046090;28;20029;-42
2022/05/09 23:21:35;;;;;;;12.77;5.05;;;;;;;;;;5034318;28;20362;-47
2022/05/09 23:24:01;;;;;;;10.73;5.07;;;;;;;;;;5030571;28;20477;-43
2022/05/09 23:26:27;;;;;;;10.63;4.57;;;;;;;;;;5048953;28;20037;-48
2022/05/09 23:28:58;;;;;;;9.90;4.57;;;;;;;;;;5050815;28;20021;-47
2022/05/09 23:31:24;;;;;;;10.30;4.78;;;;;;;;;;5051630;28;20090;-45
2022/05/09 23:33:50;;;;;;;9.30;4.45;;;;;;;;;;5053711;28;20421;-46
2022/05/09 23:36:16;;;;;;;10.85;5.05;;;;;;;;;;5030700;28;20104;-44
2022/05/09 23:38:42;;;;;;;9.60;4.60;;;;;;;;;;5040683;28;20075;-43
2022/05/09 23:41:09;;;;;;;9.23;4.45;;;;;;;;;;5054565;28;20048;-44
2022/05/09 23:43:37;;;;;;;10.68;4.25;;;;;;;;;;5037581;28;20504;-44
2022/05/09 23:46:04;;;;;;;7.32;3.83;;;;;;;;;;5052495;28;20045;-48
2022/05/09 23:48:30;;;;;;;10.90;3.78;;;;;;;;;;5053194;28;20048;-42
2022/05/09 23:50:56;;;;;;;8.77;4.28;;;;;;;;;;5050374;28;20434;-45
2022/05/09 23:53:23;;;;;;;10.15;4.72;;;;;;;;;;5049677;28;20024;-45
2022/05/09 23:55:49;;;;;;;9.68;4.60;;;;;;;;;;5050434;28;20044;-44
2022/05/09 23:58:21;;;;;;;10.55;4.72;;;;;;;;;;5052484;28;20120;-45
